sensor_id;sensor_type;location;lat;lon;timestamp;P1;durP1;ratioP1;P2;durP2;ratioP2
43248;SDS011;29216;51.248;6.808;2023-01-28T00:01:22;5.13;;;4.57;;
43248;SDS011;29216;51.248;6.808;2023-01-28T00:03:54;6.53;;;4.65;;
43248;SDS011;29216;51.248;6.808;2023-01-28T00:06:26;5.53;;;4.40;;
43248;SDS011;29216;51.248;6.808;2023-01-28T00:08:51;6.10;;;5.07;;
43248;SDS011;29216;51.248;6.808;2023-01-28T00:11:18;5.53;;;5.00;;
43248;SDS011;29216;51.248;6.808;2023-01-28T00:13:49;10.10;;;5.68;;
43248;SDS011;29216;51.248;6.808;2023-01-28T00:16:18;6.60;;;5.20;;
43248;SDS011;29216;51.248;6.808;2023-01-28T00:18:56;8.40;;;5.38;;
43248;SDS011;29216;51.248;6.808;2023-01-28T00:21:27;8.02;;;4.97;;
43248;SDS011;29216;51.248;6.808;2023-01-28T00:24:02;9.43;;;5.10;;
43248;SDS011;29216;51.248;6.808;2023-01-28T00:26:27;7.82;;;5.38;;
43248;SDS011;29216;51.248;6.808;2023-01-28T00:28:53;6.07;;;5.10;;
43248;SDS011;29216;51.248;6.808;2023-01-28T00:31:25;6.75;;;5.35;;
43248;SDS011;29216;51.248;6.808;2023-01-28T00:33:51;8.10;;;6.10;;
43248;SDS011;29216;51.248;6.808;2023-01-28T00:36:19;8.00;;;5.43;;
43248;SDS011;29216;51.248;6.808;2023-01-28T00:38:49;8.55;;;5.93;;
43248;SDS011;29216;51.248;6.808;2023-01-28T00:41:17;6.85;;;5.80;;
43248;SDS011;29216;51.248;6.808;2023-01-28T00:43:47;8.15;;;6.47;;
43248;SDS011;29216;51.248;6.808;2023-01-28T00:46:13;6.93;;;5.63;;
43248;SDS011;29216;51.248;6.808;2023-01-28T00:48:40;7.40;;;5.97;;
43248;SDS011;29216;51.248;6.808;2023-01-28T00:51:07;8.63;;;6.00;;
43248;SDS011;29216;51.248;6.808;2023-01-28T00:53:34;9.52;;;6.53;;
43248;SDS011;29216;51.248;6.808;2023-01-28T00:56:00;6.57;;;5.85;;
43248;SDS011;29216;51.248;6.808;2023-01-28T00:58:26;7.88;;;5.80;;
43248;SDS011;29216;51.248;6.808;2023-01-28T01:00:52;6.78;;;5.93;;
43248;SDS011;29216;51.248;6.808;2023-01-28T01:03:18;6.25;;;5.65;;
43248;SDS011;29216;51.248;6.808;2023-01-28T01:05:44;7.93;;;6.45;;
43248;SDS011;29216;51.248;6.808;2023-01-28T01:08:13;8.60;;;6.45;;
43248;SDS011;29216;51.248;6.808;2023-01-28T01:10:39;9.07;;;5.72;;
43248;SDS011;29216;51.248;6.808;2023-01-28T01:13:05;8.32;;;5.90;;
43248;SDS011;29216;51.248;6.808;2023-01-28T01:15:31;6.32;;;5.25;;
43248;SDS011;29216;51.248;6.808;2023-01-28T01:17:57;7.15;;;5.75;;
43248;SDS011;29216;51.248;6.808;2023-01-28T01:20:25;8.02;;;6.03;;
43248;SDS011;29216;51.248;6.808;2023-01-28T01:22:52;6.82;;;5.68;;
43248;SDS011;29216;51.248;6.808;2023-01-28T01:25:18;6.40;;;5.28;;
43248;SDS011;29216;51.248;6.808;2023-01-28T01:27:46;7.28;;;5.43;;
43248;SDS011;29216;51.248;6.808;2023-01-28T01:30:13;7.13;;;5.18;;
43248;SDS011;29216;51.248;6.808;2023-01-28T01:32:39;7.30;;;5.50;;
43248;SDS011;29216;51.248;6.808;2023-01-28T01:35:04;6.72;;;5.70;;
43248;SDS011;29216;51.248;6.808;2023-01-28T01:37:32;9.98;;;5.60;;
43248;SDS011;29216;51.248;6.808;2023-01-28T01:40:01;7.07;;;5.82;;
43248;SDS011;29216;51.248;6.808;2023-01-28T01:42:28;6.97;;;5.45;;
43248;SDS011;29216;51.248;6.808;2023-01-28T01:44:56;7.03;;;5.32;;
43248;SDS011;29216;51.248;6.808;2023-01-28T01:50:22;6.53;;;4.32;;
43248;SDS011;29216;51.248;6.808;2023-01-28T01:53:02;7.03;;;4.50;;
43248;SDS011;29216;51.248;6.808;2023-01-28T01:55:40;5.90;;;4.43;;
43248;SDS011;29216;51.248;6.808;2023-01-28T01:58:10;5.25;;;4.75;;
43248;SDS011;29216;51.248;6.808;2023-01-28T02:00:40;5.95;;;4.60;;
43248;SDS011;29216;51.248;6.808;2023-01-28T02:03:06;5.10;;;4.55;;
43248;SDS011;29216;51.248;6.808;2023-01-28T02:05:34;6.85;;;4.63;;
43248;SDS011;29216;51.248;6.808;2023-01-28T02:08:00;8.38;;;4.70;;
43248;SDS011;29216;51.248;6.808;2023-01-28T02:13:16;5.30;;;4.32;;
43248;SDS011;29216;51.248;6.808;2023-01-28T02:15:44;6.13;;;4.25;;
43248;SDS011;29216;51.248;6.808;2023-01-28T02:18:11;6.05;;;4.28;;
43248;SDS011;29216;51.248;6.808;2023-01-28T02:21:16;8.30;;;5.10;;
43248;SDS011;29216;51.248;6.808;2023-01-28T02:26:09;5.88;;;4.63;;
43248;SDS011;29216;51.248;6.808;2023-01-28T02:28:54;6.82;;;5.40;;
43248;SDS011;29216;51.248;6.808;2023-01-28T02:31:38;6.88;;;5.03;;
43248;SDS011;29216;51.248;6.808;2023-01-28T02:37:04;5.85;;;5.18;;
43248;SDS011;29216;51.248;6.808;2023-01-28T02:39:50;7.28;;;4.93;;
43248;SDS011;29216;51.248;6.808;2023-01-28T02:42:22;8.10;;;5.60;;
43248;SDS011;29216;51.248;6.808;2023-01-28T02:44:53;7.97;;;6.63;;
43248;SDS011;29216;51.248;6.808;2023-01-28T02:47:18;12.48;;;7.05;;
43248;SDS011;29216;51.248;6.808;2023-01-28T02:50:03;9.05;;;7.05;;
43248;SDS011;29216;51.248;6.808;2023-01-28T02:58:29;10.75;;;7.85;;
43248;SDS011;29216;51.248;6.808;2023-01-28T03:06:33;13.63;;;9.70;;
43248;SDS011;29216;51.248;6.808;2023-01-28T03:09:04;13.60;;;9.27;;
43248;SDS011;29216;51.248;6.808;2023-01-28T03:12:04;16.75;;;9.48;;
43248;SDS011;29216;51.248;6.808;2023-01-28T03:14:59;14.20;;;9.93;;
43248;SDS011;29216;51.248;6.808;2023-01-28T03:18:07;16.13;;;9.38;;
43248;SDS011;29216;51.248;6.808;2023-01-28T03:29:59;14.02;;;9.02;;
43248;SDS011;29216;51.248;6.808;2023-01-28T03:32:46;14.00;;;9.68;;
43248;SDS011;29216;51.248;6.808;2023-01-28T03:35:32;13.48;;;9.30;;
43248;SDS011;29216;51.248;6.808;2023-01-28T03:38:18;16.05;;;10.02;;
43248;SDS011;29216;51.248;6.808;2023-01-28T03:40:57;18.10;;;10.25;;
43248;SDS011;29216;51.248;6.808;2023-01-28T03:43:24;15.10;;;10.25;;
43248;SDS011;29216;51.248;6.808;2023-01-28T03:45:50;18.48;;;9.63;;
43248;SDS011;29216;51.248;6.808;2023-01-28T03:48:23;14.55;;;10.27;;
43248;SDS011;29216;51.248;6.808;2023-01-28T03:50:50;17.25;;;10.07;;
43248;SDS011;29216;51.248;6.808;2023-01-28T03:53:16;13.88;;;9.23;;
43248;SDS011;29216;51.248;6.808;2023-01-28T03:55:43;15.70;;;10.02;;
43248;SDS011;29216;51.248;6.808;2023-01-28T03:58:10;15.45;;;9.77;;
43248;SDS011;29216;51.248;6.808;2023-01-28T04:00:38;11.30;;;8.85;;
43248;SDS011;29216;51.248;6.808;2023-01-28T04:03:06;14.48;;;9.52;;
43248;SDS011;29216;51.248;6.808;2023-01-28T04:05:39;12.98;;;9.60;;
43248;SDS011;29216;51.248;6.808;2023-01-28T04:08:24;13.48;;;9.73;;
43248;SDS011;29216;51.248;6.808;2023-01-28T04:10:50;16.20;;;9.48;;
43248;SDS011;29216;51.248;6.808;2023-01-28T04:13:16;12.23;;;8.38;;
43248;SDS011;29216;51.248;6.808;2023-01-28T04:15:42;13.38;;;9.60;;
43248;SDS011;29216;51.248;6.808;2023-01-28T04:18:09;13.48;;;9.10;;
43248;SDS011;29216;51.248;6.808;2023-01-28T04:20:35;12.57;;;8.50;;
43248;SDS011;29216;51.248;6.808;2023-01-28T04:23:01;13.23;;;9.37;;
43248;SDS011;29216;51.248;6.808;2023-01-28T04:25:27;12.05;;;8.43;;
43248;SDS011;29216;51.248;6.808;2023-01-28T04:27:52;11.87;;;8.03;;
43248;SDS011;29216;51.248;6.808;2023-01-28T04:30:18;11.15;;;8.90;;
43248;SDS011;29216;51.248;6.808;2023-01-28T04:32:45;12.20;;;8.95;;
43248;SDS011;29216;51.248;6.808;2023-01-28T04:35:10;13.25;;;9.45;;
43248;SDS011;29216;51.248;6.808;2023-01-28T04:37:43;12.43;;;8.63;;
43248;SDS011;29216;51.248;6.808;2023-01-28T04:40:16;12.43;;;8.27;;
43248;SDS011;29216;51.248;6.808;2023-01-28T04:42:42;12.13;;;8.13;;
43248;SDS011;29216;51.248;6.808;2023-01-28T04:45:07;10.93;;;8.13;;
43248;SDS011;29216;51.248;6.808;2023-01-28T04:47:33;10.73;;;8.07;;
43248;SDS011;29216;51.248;6.808;2023-01-28T04:49:59;10.27;;;8.18;;
43248;SDS011;29216;51.248;6.808;2023-01-28T04:52:24;11.52;;;7.50;;
43248;SDS011;29216;51.248;6.808;2023-01-28T04:54:50;12.88;;;8.73;;
43248;SDS011;29216;51.248;6.808;2023-01-28T04:57:15;9.35;;;7.63;;
43248;SDS011;29216;51.248;6.808;2023-01-28T04:59:41;10.60;;;7.57;;
43248;SDS011;29216;51.248;6.808;2023-01-28T05:02:07;9.73;;;7.50;;
43248;SDS011;29216;51.248;6.808;2023-01-28T05:04:32;10.90;;;7.40;;
43248;SDS011;29216;51.248;6.808;2023-01-28T05:06:58;11.10;;;7.45;;
43248;SDS011;29216;51.248;6.808;2023-01-28T05:09:23;10.85;;;7.90;;
43248;SDS011;29216;51.248;6.808;2023-01-28T05:11:49;10.10;;;7.30;;
43248;SDS011;29216;51.248;6.808;2023-01-28T05:14:14;11.85;;;7.43;;
43248;SDS011;29216;51.248;6.808;2023-01-28T05:16:40;12.57;;;7.70;;
43248;SDS011;29216;51.248;6.808;2023-01-28T05:19:06;9.05;;;6.88;;
43248;SDS011;29216;51.248;6.808;2023-01-28T05:21:31;9.27;;;7.15;;
43248;SDS011;29216;51.248;6.808;2023-01-28T05:23:57;8.90;;;7.20;;
43248;SDS011;29216;51.248;6.808;2023-01-28T05:26:22;10.02;;;6.82;;
43248;SDS011;29216;51.248;6.808;2023-01-28T05:28:48;10.40;;;6.97;;
43248;SDS011;29216;51.248;6.808;2023-01-28T05:31:15;8.27;;;6.63;;
43248;SDS011;29216;51.248;6.808;2023-01-28T05:33:41;8.73;;;6.65;;
43248;SDS011;29216;51.248;6.808;2023-01-28T05:36:06;11.05;;;7.32;;
43248;SDS011;29216;51.248;6.808;2023-01-28T05:38:32;8.52;;;6.80;;
43248;SDS011;29216;51.248;6.808;2023-01-28T05:40:58;8.95;;;6.85;;
43248;SDS011;29216;51.248;6.808;2023-01-28T05:43:23;9.05;;;6.97;;
43248;SDS011;29216;51.248;6.808;2023-01-28T05:45:49;10.25;;;7.47;;
43248;SDS011;29216;51.248;6.808;2023-01-28T05:48:14;8.13;;;6.70;;
43248;SDS011;29216;51.248;6.808;2023-01-28T05:50:40;10.17;;;7.67;;
43248;SDS011;29216;51.248;6.808;2023-01-28T05:53:06;8.95;;;7.78;;
43248;SDS011;29216;51.248;6.808;2023-01-28T05:55:32;9.15;;;7.28;;
43248;SDS011;29216;51.248;6.808;2023-01-28T05:57:58;9.48;;;7.40;;
43248;SDS011;29216;51.248;6.808;2023-01-28T06:00:23;8.27;;;7.10;;
43248;SDS011;29216;51.248;6.808;2023-01-28T06:02:52;9.10;;;7.28;;
43248;SDS011;29216;51.248;6.808;2023-01-28T06:05:18;11.93;;;7.97;;
43248;SDS011;29216;51.248;6.808;2023-01-28T06:07:44;8.95;;;7.22;;
43248;SDS011;29216;51.248;6.808;2023-01-28T06:10:13;8.60;;;7.33;;
43248;SDS011;29216;51.248;6.808;2023-01-28T06:12:39;10.03;;;8.03;;
43248;SDS011;29216;51.248;6.808;2023-01-28T06:15:05;8.37;;;7.20;;
43248;SDS011;29216;51.248;6.808;2023-01-28T06:17:31;9.63;;;7.60;;
43248;SDS011;29216;51.248;6.808;2023-01-28T06:19:57;9.83;;;7.63;;
43248;SDS011;29216;51.248;6.808;2023-01-28T06:22:22;10.40;;;7.57;;
43248;SDS011;29216;51.248;6.808;2023-01-28T06:24:48;9.73;;;7.93;;
43248;SDS011;29216;51.248;6.808;2023-01-28T06:27:13;11.43;;;7.43;;
43248;SDS011;29216;51.248;6.808;2023-01-28T06:29:39;9.80;;;7.93;;
43248;SDS011;29216;51.248;6.808;2023-01-28T06:32:04;12.25;;;7.75;;
43248;SDS011;29216;51.248;6.808;2023-01-28T06:34:30;8.82;;;7.55;;
43248;SDS011;29216;51.248;6.808;2023-01-28T06:36:56;9.35;;;7.22;;
43248;SDS011;29216;51.248;6.808;2023-01-28T06:39:21;8.07;;;7.22;;
43248;SDS011;29216;51.248;6.808;2023-01-28T06:41:47;8.43;;;7.07;;
43248;SDS011;29216;51.248;6.808;2023-01-28T06:44:14;8.07;;;7.03;;
43248;SDS011;29216;51.248;6.808;2023-01-28T06:46:40;10.20;;;8.10;;
43248;SDS011;29216;51.248;6.808;2023-01-28T06:49:06;12.02;;;8.85;;
43248;SDS011;29216;51.248;6.808;2023-01-28T06:51:32;9.90;;;7.70;;
43248;SDS011;29216;51.248;6.808;2023-01-28T06:53:57;10.27;;;7.57;;
43248;SDS011;29216;51.248;6.808;2023-01-28T06:56:23;9.55;;;7.25;;
43248;SDS011;29216;51.248;6.808;2023-01-28T06:58:49;9.77;;;7.63;;
43248;SDS011;29216;51.248;6.808;2023-01-28T07:01:14;11.48;;;7.75;;
43248;SDS011;29216;51.248;6.808;2023-01-28T07:03:40;9.60;;;7.80;;
43248;SDS011;29216;51.248;6.808;2023-01-28T07:06:06;7.80;;;6.93;;
43248;SDS011;29216;51.248;6.808;2023-01-28T07:08:31;9.50;;;7.85;;
43248;SDS011;29216;51.248;6.808;2023-01-28T07:10:57;10.52;;;7.30;;
43248;SDS011;29216;51.248;6.808;2023-01-28T07:13:23;8.93;;;7.15;;
43248;SDS011;29216;51.248;6.808;2023-01-28T07:15:49;9.73;;;7.60;;
43248;SDS011;29216;51.248;6.808;2023-01-28T07:18:15;9.38;;;7.28;;
43248;SDS011;29216;51.248;6.808;2023-01-28T07:20:40;12.43;;;8.20;;
43248;SDS011;29216;51.248;6.808;2023-01-28T07:23:06;8.73;;;7.75;;
43248;SDS011;29216;51.248;6.808;2023-01-28T07:25:32;9.73;;;7.95;;
43248;SDS011;29216;51.248;6.808;2023-01-28T07:27:57;11.15;;;8.10;;
43248;SDS011;29216;51.248;6.808;2023-01-28T07:30:23;13.63;;;8.05;;
43248;SDS011;29216;51.248;6.808;2023-01-28T07:32:53;11.80;;;9.10;;
43248;SDS011;29216;51.248;6.808;2023-01-28T07:35:19;9.52;;;7.93;;
43248;SDS011;29216;51.248;6.808;2023-01-28T07:37:52;9.00;;;8.02;;
43248;SDS011;29216;51.248;6.808;2023-01-28T07:40:19;9.80;;;7.88;;
43248;SDS011;29216;51.248;6.808;2023-01-28T07:42:45;12.65;;;8.68;;
43248;SDS011;29216;51.248;6.808;2023-01-28T07:45:11;8.73;;;7.63;;
43248;SDS011;29216;51.248;6.808;2023-01-28T07:47:36;8.65;;;7.68;;
43248;SDS011;29216;51.248;6.808;2023-01-28T07:50:02;10.65;;;8.05;;
43248;SDS011;29216;51.248;6.808;2023-01-28T07:52:28;9.90;;;8.02;;
43248;SDS011;29216;51.248;6.808;2023-01-28T07:54:53;9.80;;;8.15;;
43248;SDS011;29216;51.248;6.808;2023-01-28T07:57:19;10.07;;;7.93;;
43248;SDS011;29216;51.248;6.808;2023-01-28T07:59:47;10.88;;;8.30;;
43248;SDS011;29216;51.248;6.808;2023-01-28T08:02:13;11.27;;;8.38;;
43248;SDS011;29216;51.248;6.808;2023-01-28T08:04:39;10.27;;;8.38;;
43248;SDS011;29216;51.248;6.808;2023-01-28T08:07:05;10.38;;;8.38;;
43248;SDS011;29216;51.248;6.808;2023-01-28T08:09:30;10.05;;;7.65;;
43248;SDS011;29216;51.248;6.808;2023-01-28T08:11:58;10.45;;;8.00;;
43248;SDS011;29216;51.248;6.808;2023-01-28T08:14:25;8.43;;;7.50;;
43248;SDS011;29216;51.248;6.808;2023-01-28T08:16:51;11.95;;;7.63;;
43248;SDS011;29216;51.248;6.808;2023-01-28T08:19:17;10.15;;;7.70;;
43248;SDS011;29216;51.248;6.808;2023-01-28T08:21:46;8.60;;;7.18;;
43248;SDS011;29216;51.248;6.808;2023-01-28T08:24:12;8.80;;;6.85;;
43248;SDS011;29216;51.248;6.808;2023-01-28T08:26:37;11.82;;;7.03;;
43248;SDS011;29216;51.248;6.808;2023-01-28T08:29:03;11.93;;;7.30;;
43248;SDS011;29216;51.248;6.808;2023-01-28T08:31:29;10.52;;;7.20;;
43248;SDS011;29216;51.248;6.808;2023-01-28T08:33:55;9.63;;;6.05;;
43248;SDS011;29216;51.248;6.808;2023-01-28T08:36:20;7.82;;;7.03;;
43248;SDS011;29216;51.248;6.808;2023-01-28T08:38:47;7.63;;;6.60;;
43248;SDS011;29216;51.248;6.808;2023-01-28T08:41:18;6.97;;;6.28;;
43248;SDS011;29216;51.248;6.808;2023-01-28T08:43:46;7.60;;;6.47;;
43248;SDS011;29216;51.248;6.808;2023-01-28T08:46:12;16.08;;;8.23;;
43248;SDS011;29216;51.248;6.808;2023-01-28T08:48:38;10.32;;;7.32;;
43248;SDS011;29216;51.248;6.808;2023-01-28T08:51:03;8.02;;;6.15;;
43248;SDS011;29216;51.248;6.808;2023-01-28T08:53:29;7.00;;;6.25;;
43248;SDS011;29216;51.248;6.808;2023-01-28T08:55:55;8.15;;;6.82;;
43248;SDS011;29216;51.248;6.808;2023-01-28T08:58:21;10.55;;;7.75;;
43248;SDS011;29216;51.248;6.808;2023-01-28T09:00:47;9.13;;;7.70;;
43248;SDS011;29216;51.248;6.808;2023-01-28T09:03:13;8.75;;;7.72;;
43248;SDS011;29216;51.248;6.808;2023-01-28T09:05:39;9.40;;;7.50;;
43248;SDS011;29216;51.248;6.808;2023-01-28T09:08:06;10.75;;;8.68;;
43248;SDS011;29216;51.248;6.808;2023-01-28T09:10:34;10.20;;;8.25;;
43248;SDS011;29216;51.248;6.808;2023-01-28T09:13:05;9.05;;;7.95;;
43248;SDS011;29216;51.248;6.808;2023-01-28T09:15:40;10.18;;;7.80;;
43248;SDS011;29216;51.248;6.808;2023-01-28T09:18:06;11.32;;;7.97;;
43248;SDS011;29216;51.248;6.808;2023-01-28T09:20:32;8.80;;;7.57;;
43248;SDS011;29216;51.248;6.808;2023-01-28T09:22:58;10.30;;;7.47;;
43248;SDS011;29216;51.248;6.808;2023-01-28T09:25:26;8.38;;;7.50;;
43248;SDS011;29216;51.248;6.808;2023-01-28T09:27:51;10.40;;;8.57;;
43248;SDS011;29216;51.248;6.808;2023-01-28T09:30:17;9.80;;;8.73;;
43248;SDS011;29216;51.248;6.808;2023-01-28T09:32:43;8.85;;;7.75;;
43248;SDS011;29216;51.248;6.808;2023-01-28T09:35:08;9.73;;;7.90;;
43248;SDS011;29216;51.248;6.808;2023-01-28T09:37:34;9.10;;;8.02;;
43248;SDS011;29216;51.248;6.808;2023-01-28T09:40:00;12.90;;;8.70;;
43248;SDS011;29216;51.248;6.808;2023-01-28T09:45:46;10.20;;;8.50;;
43248;SDS011;29216;51.248;6.808;2023-01-28T09:48:21;10.98;;;8.88;;
43248;SDS011;29216;51.248;6.808;2023-01-28T09:51:02;10.27;;;8.75;;
43248;SDS011;29216;51.248;6.808;2023-01-28T09:53:32;14.05;;;9.52;;
43248;SDS011;29216;51.248;6.808;2023-01-28T09:58:36;11.32;;;9.02;;
43248;SDS011;29216;51.248;6.808;2023-01-28T10:09:40;12.85;;;9.77;;
43248;SDS011;29216;51.248;6.808;2023-01-28T10:14:55;12.90;;;10.80;;
43248;SDS011;29216;51.248;6.808;2023-01-28T10:22:47;10.82;;;9.60;;
43248;SDS011;29216;51.248;6.808;2023-01-28T10:25:30;12.50;;;10.27;;
43248;SDS011;29216;51.248;6.808;2023-01-28T10:27:56;11.55;;;10.32;;
43248;SDS011;29216;51.248;6.808;2023-01-28T10:30:25;14.10;;;11.52;;
43248;SDS011;29216;51.248;6.808;2023-01-28T10:33:04;14.73;;;10.82;;
43248;SDS011;29216;51.248;6.808;2023-01-28T10:35:38;12.75;;;11.05;;
43248;SDS011;29216;51.248;6.808;2023-01-28T10:40:45;15.13;;;11.43;;
43248;SDS011;29216;51.248;6.808;2023-01-28T10:43:13;14.50;;;11.93;;
43248;SDS011;29216;51.248;6.808;2023-01-28T10:45:50;12.85;;;11.10;;
43248;SDS011;29216;51.248;6.808;2023-01-28T10:48:25;18.15;;;11.93;;
43248;SDS011;29216;51.248;6.808;2023-01-28T10:50:57;16.20;;;11.05;;
43248;SDS011;29216;51.248;6.808;2023-01-28T10:53:36;21.10;;;11.13;;
43248;SDS011;29216;51.248;6.808;2023-01-28T10:56:02;14.13;;;10.65;;
43248;SDS011;29216;51.248;6.808;2023-01-28T10:58:33;12.57;;;10.75;;
43248;SDS011;29216;51.248;6.808;2023-01-28T11:01:01;11.57;;;9.98;;
43248;SDS011;29216;51.248;6.808;2023-01-28T11:03:29;12.70;;;11.32;;
43248;SDS011;29216;51.248;6.808;2023-01-28T11:05:56;12.23;;;10.50;;
43248;SDS011;29216;51.248;6.808;2023-01-28T11:08:24;11.43;;;10.15;;
43248;SDS011;29216;51.248;6.808;2023-01-28T11:10:52;15.32;;;10.70;;
43248;SDS011;29216;51.248;6.808;2023-01-28T11:13:22;14.57;;;11.23;;
43248;SDS011;29216;51.248;6.808;2023-01-28T11:16:00;12.77;;;10.57;;
43248;SDS011;29216;51.248;6.808;2023-01-28T11:18:34;14.32;;;10.75;;
43248;SDS011;29216;51.248;6.808;2023-01-28T11:21:14;13.35;;;10.52;;
43248;SDS011;29216;51.248;6.808;2023-01-28T11:23:53;17.08;;;11.52;;
43248;SDS011;29216;51.248;6.808;2023-01-28T11:26:23;14.23;;;10.88;;
43248;SDS011;29216;51.248;6.808;2023-01-28T11:28:51;12.73;;;11.15;;
43248;SDS011;29216;51.248;6.808;2023-01-28T11:31:17;13.38;;;10.32;;
43248;SDS011;29216;51.248;6.808;2023-01-28T11:33:54;12.82;;;11.35;;
43248;SDS011;29216;51.248;6.808;2023-01-28T11:36:25;15.00;;;11.80;;
43248;SDS011;29216;51.248;6.808;2023-01-28T11:38:56;14.98;;;11.70;;
43248;SDS011;29216;51.248;6.808;2023-01-28T11:41:36;17.20;;;11.68;;
43248;SDS011;29216;51.248;6.808;2023-01-28T11:44:14;14.95;;;11.73;;
43248;SDS011;29216;51.248;6.808;2023-01-28T12:03:10;16.95;;;12.15;;
43248;SDS011;29216;51.248;6.808;2023-01-28T12:18:53;15.35;;;12.18;;
43248;SDS011;29216;51.248;6.808;2023-01-28T12:27:09;15.43;;;12.75;;
43248;SDS011;29216;51.248;6.808;2023-01-28T12:29:46;17.00;;;12.32;;
43248;SDS011;29216;51.248;6.808;2023-01-28T12:35:34;16.20;;;11.60;;
43248;SDS011;29216;51.248;6.808;2023-01-28T12:41:18;13.95;;;11.57;;
43248;SDS011;29216;51.248;6.808;2023-01-28T12:43:52;14.73;;;11.38;;
43248;SDS011;29216;51.248;6.808;2023-01-28T12:46:54;16.13;;;12.57;;
43248;SDS011;29216;51.248;6.808;2023-01-28T12:49:33;13.23;;;11.50;;
43248;SDS011;29216;51.248;6.808;2023-01-28T12:57:16;13.45;;;10.88;;
43248;SDS011;29216;51.248;6.808;2023-01-28T12:59:50;12.65;;;10.20;;
43248;SDS011;29216;51.248;6.808;2023-01-28T13:02:34;12.98;;;10.90;;
43248;SDS011;29216;51.248;6.808;2023-01-28T13:08:02;11.95;;;10.57;;
43248;SDS011;29216;51.248;6.808;2023-01-28T13:10:40;15.98;;;11.02;;
43248;SDS011;29216;51.248;6.808;2023-01-28T13:13:15;13.20;;;10.73;;
43248;SDS011;29216;51.248;6.808;2023-01-28T13:15:46;12.57;;;11.05;;
43248;SDS011;29216;51.248;6.808;2023-01-28T13:20:57;13.00;;;10.93;;
43248;SDS011;29216;51.248;6.808;2023-01-28T13:23:25;12.25;;;10.73;;
43248;SDS011;29216;51.248;6.808;2023-01-28T13:26:10;12.50;;;10.52;;
43248;SDS011;29216;51.248;6.808;2023-01-28T13:28:42;15.52;;;10.73;;
43248;SDS011;29216;51.248;6.808;2023-01-28T13:31:11;13.45;;;10.55;;
43248;SDS011;29216;51.248;6.808;2023-01-28T13:33:42;17.25;;;11.13;;
43248;SDS011;29216;51.248;6.808;2023-01-28T13:39:04;14.35;;;11.02;;
43248;SDS011;29216;51.248;6.808;2023-01-28T13:44:15;12.63;;;11.25;;
43248;SDS011;29216;51.248;6.808;2023-01-28T13:46:52;12.40;;;9.32;;
43248;SDS011;29216;51.248;6.808;2023-01-28T13:49:25;12.48;;;9.70;;
43248;SDS011;29216;51.248;6.808;2023-01-28T13:54:34;12.82;;;9.88;;
43248;SDS011;29216;51.248;6.808;2023-01-28T14:07:38;13.35;;;10.25;;
43248;SDS011;29216;51.248;6.808;2023-01-28T14:18:12;12.25;;;10.38;;
43248;SDS011;29216;51.248;6.808;2023-01-28T14:20:50;11.98;;;10.25;;
43248;SDS011;29216;51.248;6.808;2023-01-28T14:23:18;13.60;;;10.38;;
43248;SDS011;29216;51.248;6.808;2023-01-28T14:28:58;11.18;;;9.63;;
43248;SDS011;29216;51.248;6.808;2023-01-28T14:34:02;13.70;;;10.45;;
43248;SDS011;29216;51.248;6.808;2023-01-28T14:36:42;16.70;;;11.75;;
43248;SDS011;29216;51.248;6.808;2023-01-28T14:39:19;16.33;;;11.52;;
43248;SDS011;29216;51.248;6.808;2023-01-28T14:41:49;16.17;;;11.83;;
43248;SDS011;29216;51.248;6.808;2023-01-28T14:44:35;18.80;;;11.10;;
43248;SDS011;29216;51.248;6.808;2023-01-28T14:52:48;14.75;;;10.02;;
43248;SDS011;29216;51.248;6.808;2023-01-28T14:58:04;13.83;;;11.40;;
43248;SDS011;29216;51.248;6.808;2023-01-28T15:00:35;13.57;;;10.50;;
43248;SDS011;29216;51.248;6.808;2023-01-28T15:03:18;12.17;;;10.50;;
43248;SDS011;29216;51.248;6.808;2023-01-28T15:05:44;16.13;;;11.77;;
43248;SDS011;29216;51.248;6.808;2023-01-28T15:08:20;14.88;;;11.27;;
43248;SDS011;29216;51.248;6.808;2023-01-28T15:10:50;12.93;;;11.17;;
43248;SDS011;29216;51.248;6.808;2023-01-28T15:13:28;13.50;;;10.53;;
43248;SDS011;29216;51.248;6.808;2023-01-28T15:16:00;15.10;;;11.02;;
43248;SDS011;29216;51.248;6.808;2023-01-28T15:20:56;15.37;;;11.93;;
43248;SDS011;29216;51.248;6.808;2023-01-28T15:23:28;17.00;;;11.53;;
43248;SDS011;29216;51.248;6.808;2023-01-28T15:26:03;15.63;;;11.27;;
43248;SDS011;29216;51.248;6.808;2023-01-28T15:28:50;14.30;;;11.60;;
43248;SDS011;29216;51.248;6.808;2023-01-28T15:31:26;15.20;;;12.17;;
43248;SDS011;29216;51.248;6.808;2023-01-28T15:36:25;14.17;;;10.90;;
43248;SDS011;29216;51.248;6.808;2023-01-28T15:38:51;14.77;;;11.30;;
43248;SDS011;29216;51.248;6.808;2023-01-28T15:41:18;15.97;;;11.90;;
43248;SDS011;29216;51.248;6.808;2023-01-28T15:43:47;13.23;;;11.50;;
43248;SDS011;29216;51.248;6.808;2023-01-28T15:46:14;14.73;;;11.67;;
43248;SDS011;29216;51.248;6.808;2023-01-28T15:48:44;15.97;;;12.80;;
43248;SDS011;29216;51.248;6.808;2023-01-28T15:51:23;17.40;;;13.27;;
43248;SDS011;29216;51.248;6.808;2023-01-28T15:53:52;17.40;;;13.57;;
43248;SDS011;29216;51.248;6.808;2023-01-28T15:56:26;18.67;;;13.67;;
43248;SDS011;29216;51.248;6.808;2023-01-28T15:58:53;21.33;;;13.60;;
43248;SDS011;29216;51.248;6.808;2023-01-28T16:01:23;19.63;;;14.10;;
43248;SDS011;29216;51.248;6.808;2023-01-28T16:03:59;22.30;;;14.77;;
43248;SDS011;29216;51.248;6.808;2023-01-28T16:06:28;21.50;;;14.93;;
43248;SDS011;29216;51.248;6.808;2023-01-28T16:09:03;18.73;;;14.00;;
43248;SDS011;29216;51.248;6.808;2023-01-28T16:11:35;20.00;;;15.37;;
43248;SDS011;29216;51.248;6.808;2023-01-28T16:14:22;24.08;;;15.13;;
43248;SDS011;29216;51.248;6.808;2023-01-28T16:16:52;35.53;;;19.00;;
43248;SDS011;29216;51.248;6.808;2023-01-28T16:19:30;42.30;;;23.47;;
43248;SDS011;29216;51.248;6.808;2023-01-28T16:22:05;24.50;;;17.87;;
43248;SDS011;29216;51.248;6.808;2023-01-28T16:24:32;27.13;;;16.43;;
43248;SDS011;29216;51.248;6.808;2023-01-28T16:27:03;23.40;;;16.20;;
43248;SDS011;29216;51.248;6.808;2023-01-28T16:29:31;23.47;;;15.93;;
43248;SDS011;29216;51.248;6.808;2023-01-28T16:31:57;28.27;;;17.40;;
43248;SDS011;29216;51.248;6.808;2023-01-28T16:34:24;38.43;;;22.53;;
43248;SDS011;29216;51.248;6.808;2023-01-28T16:36:52;27.30;;;17.07;;
43248;SDS011;29216;51.248;6.808;2023-01-28T16:39:20;31.80;;;17.93;;
43248;SDS011;29216;51.248;6.808;2023-01-28T16:41:46;27.53;;;17.83;;
43248;SDS011;29216;51.248;6.808;2023-01-28T16:44:13;25.93;;;17.03;;
43248;SDS011;29216;51.248;6.808;2023-01-28T16:46:42;26.70;;;18.30;;
43248;SDS011;29216;51.248;6.808;2023-01-28T16:49:11;25.47;;;17.23;;
43248;SDS011;29216;51.248;6.808;2023-01-28T16:51:38;29.40;;;18.00;;
43248;SDS011;29216;51.248;6.808;2023-01-28T16:54:07;28.67;;;18.53;;
43248;SDS011;29216;51.248;6.808;2023-01-28T16:56:37;29.30;;;19.63;;
43248;SDS011;29216;51.248;6.808;2023-01-28T16:59:03;30.07;;;19.87;;
43248;SDS011;29216;51.248;6.808;2023-01-28T17:01:28;35.13;;;20.60;;
43248;SDS011;29216;51.248;6.808;2023-01-28T17:03:54;38.77;;;21.20;;
43248;SDS011;29216;51.248;6.808;2023-01-28T17:06:20;35.07;;;22.50;;
43248;SDS011;29216;51.248;6.808;2023-01-28T17:08:46;34.33;;;20.97;;
43248;SDS011;29216;51.248;6.808;2023-01-28T17:11:12;31.90;;;20.20;;
43248;SDS011;29216;51.248;6.808;2023-01-28T17:13:38;36.97;;;22.70;;
43248;SDS011;29216;51.248;6.808;2023-01-28T17:16:04;35.17;;;22.00;;
43248;SDS011;29216;51.248;6.808;2023-01-28T17:18:30;38.33;;;21.40;;
43248;SDS011;29216;51.248;6.808;2023-01-28T17:21:00;38.57;;;22.63;;
43248;SDS011;29216;51.248;6.808;2023-01-28T17:23:26;37.20;;;23.30;;